Time;durP1;ratioP1;P1;durP2;ratioP2;P2;SDS_P1;SDS_P2;PMS_P1;PMS_P2;Temp;Humidity;BMP_temperature;BMP_pressure;BME280_temperature;BME280_humidity;BME280_pressure;Samples;Min_cycle;Max_cycle;Signal;HPM_P1;HPM_P2
2021/11/02 00:00:08;;;;;;;;;9.25;9.25;;;;;10.21;69.95;99300.97;5075224;28;64870;-60
2021/11/02 00:02:34;;;;;;;;;9.00;8.25;;;;;10.19;69.75;99295.06;5075843;28;45809;-60
2021/11/02 00:05:00;;;;;;;;;12.50;9.00;;;;;10.20;69.63;99306.41;5075136;28;64013;-60
2021/11/02 00:07:26;;;;;;;;;8.00;7.00;;;;;10.21;70.15;99297.53;5076028;28;45572;-61
2021/11/02 00:09:53;;;;;;;;;9.25;8.00;;;;;10.21;69.99;99293.09;5075439;28;51455;-60
2021/11/02 00:12:24;;;;;;;;;8.25;7.25;;;;;10.21;69.82;99295.72;5075823;28;46013;-60
2021/11/02 00:14:51;;;;;;;;;8.75;8.00;;;;;10.22;69.80;99297.38;5075486;28;50990;-61
2021/11/02 00:17:22;;;;;;;;;10.75;8.75;;;;;10.21;69.78;99293.09;5076032;28;45226;-60
2021/11/02 00:19:49;;;;;;;;;10.50;9.75;;;;;10.21;70.11;99290.47;5075832;28;45357;-60
2021/11/02 00:22:16;;;;;;;;;7.75;6.75;;;;;10.23;70.36;99295.56;5075504;27;45369;-61
2021/11/02 00:27:24;;;;;;;;;7.50;6.50;;;;;10.25;70.41;99291.78;5075927;27;45269;-60
2021/11/02 00:29:50;;;;;;;;;11.00;9.25;;;;;10.27;70.15;99289.00;5078793;27;46213;-60
2021/11/02 00:32:16;;;;;;;;;8.50;6.75;;;;;10.28;69.75;99288.03;5079164;27;45358;-60
2021/11/02 00:34:41;;;;;;;;;8.25;8.25;;;;;10.28;70.01;99281.94;5079161;28;45336;-60
2021/11/02 00:37:06;;;;;;;;;6.00;6.00;;;;;10.25;70.21;99285.72;5079052;28;45421;-60
2021/11/02 00:39:32;;;;;;;;;7.25;6.00;;;;;10.27;70.28;99282.91;5078298;28;60296;-60
2021/11/02 00:41:58;;;;;;;;;8.75;6.75;;;;;10.27;70.07;99282.91;5078934;27;45346;-60
2021/11/02 00:44:23;;;;;;;;;9.25;7.25;;;;;10.28;70.05;99274.06;5078433;27;65345;-61
2021/11/02 00:46:50;;;;;;;;;9.75;7.25;;;;;10.28;70.46;99272.28;5079115;28;45466;-61
2021/11/02 00:49:21;;;;;;;;;8.25;6.00;;;;;10.27;70.12;99270.63;5077514;27;45555;-60
2021/11/02 00:51:46;;;;;;;;;10.00;9.00;;;;;10.27;70.47;99268.00;5078790;28;45267;-61
2021/11/02 00:54:12;;;;;;;;;8.50;7.00;;;;;10.28;70.29;99260.94;5078761;27;45220;-60
2021/11/02 00:56:38;;;;;;;;;16.75;15.75;;;;;10.28;70.03;99263.56;5078974;27;45432;-60
2021/11/02 00:59:03;;;;;;;;;11.75;9.75;;;;;10.27;70.36;99257.50;5078618;27;46401;-60
2021/11/02 01:01:29;;;;;;;;;12.75;11.00;;;;;10.29;70.34;99252.06;5077900;28;66234;-60
2021/11/02 01:03:54;;;;;;;;;11.75;9.25;;;;;10.25;70.33;99252.41;5078799;27;45367;-60
2021/11/02 01:06:20;;;;;;;;;13.00;12.25;;;;;10.25;70.24;99248.97;5077904;28;63453;-59
2021/11/02 01:08:45;;;;;;;;;14.50;11.75;;;;;10.26;70.08;99245.38;5078307;27;49331;-60
2021/11/02 01:11:10;;;;;;;;;14.50;14.00;;;;;10.25;70.24;99244.53;5078251;28;56768;-61
2021/11/02 01:13:36;;;;;;;;;14.25;13.50;;;;;10.25;70.00;99244.53;5078715;27;45903;-61
2021/11/02 01:16:01;;;;;;;;;14.00;12.00;;;;;10.25;70.51;99241.09;5078432;28;45561;-61
2021/11/02 01:18:27;;;;;;;;;16.75;15.00;;;;;10.27;70.50;99240.91;5077019;28;45434;-60
2021/11/02 01:20:53;;;;;;;;;16.00;14.00;;;;;10.25;70.17;99234.03;5078473;28;45408;-60
2021/11/02 01:23:18;;;;;;;;;16.75;14.00;;;;;10.24;70.51;99237.63;5078322;27;45276;-60
2021/11/02 01:25:44;;;;;;;;;16.25;12.50;;;;;10.24;70.52;99242.09;5078306;28;45248;-61
2021/11/02 01:28:09;;;;;;;;;14.00;11.50;;;;;10.25;70.46;99239.28;5078185;28;46185;-61
2021/11/02 01:30:35;;;;;;;;;14.25;10.75;;;;;10.25;70.65;99234.03;5078183;28;45216;-60
2021/11/02 01:33:00;;;;;;;;;12.00;9.25;;;;;10.28;70.60;99239.94;5077597;28;54948;-61
2021/11/02 01:35:26;;;;;;;;;14.00;11.75;;;;;10.31;70.19;99236.97;5076860;28;45476;-60
2021/11/02 01:37:51;;;;;;;;;10.25;10.00;;;;;10.30;70.20;99240.59;5077979;28;45240;-60
2021/11/02 01:40:17;;;;;;;;;10.75;8.75;;;;;10.31;70.65;99242.22;5076795;27;45298;-60
2021/11/02 01:42:43;;;;;;;;;9.25;7.75;;;;;10.31;70.40;99236.97;5077032;28;45241;-60
2021/11/02 01:45:09;;;;;;;;;9.25;6.75;;;;;10.30;70.67;99230.91;5078114;28;45645;-60
2021/11/02 01:47:36;;;;;;;;;7.00;5.50;;;;;10.31;70.43;99229.09;5076773;28;45605;-60
2021/11/02 01:50:02;;;;;;;;;5.00;5.00;;;;;10.30;70.44;99237.97;5078037;28;45929;-60
2021/11/02 01:52:27;;;;;;;;;7.50;5.00;;;;;10.30;70.50;99233.56;5078167;28;45351;-60
2021/11/02 01:54:53;;;;;;;;;6.00;5.00;;;;;10.30;70.64;99232.72;5076886;27;45583;-61
2021/11/02 01:57:18;;;;;;;;;4.00;3.25;;;;;10.30;70.35;99232.72;5077040;28;66649;-61
2021/11/02 01:59:44;;;;;;;;;8.75;4.00;;;;;10.30;70.56;99230.09;5077802;28;45422;-60
2021/11/02 02:02:21;;;;;;;;;7.50;4.75;;;;;10.30;70.36;99240.59;5076525;28;45370;-61
2021/11/02 02:05:04;;;;;;;;;3.00;3.00;;;;;10.32;70.58;99231.56;5076667;28;45357;-60
2021/11/02 02:07:36;;;;;;;;;4.75;4.25;;;;;10.32;70.69;99231.56;5077710;28;46320;-60
2021/11/02 02:10:10;;;;;;;;;4.75;4.50;;;;;10.33;70.87;99233.19;5077575;28;45342;-60
2021/11/02 02:13:13;;;;;;;;;6.00;3.25;;;;;10.34;70.60;99240.06;5076648;28;45447;-60
2021/11/02 02:15:46;;;;;;;;;4.00;4.00;;;;;10.36;70.86;99239.94;5055513;27;45455;-60
2021/11/02 02:18:14;;;;;;;;;6.00;4.75;;;;;10.37;70.97;99242.38;5059670;28;45242;-60
2021/11/02 02:21:16;;;;;;;;;6.00;5.00;;;;;10.39;70.71;99234.38;5075861;27;45431;-60
2021/11/02 02:24:12;;;;;;;;;4.00;4.00;;;;;10.40;71.02;99241.25;5077402;28;45234;-61
2021/11/02 02:27:07;;;;;;;;;4.00;4.00;;;;;10.41;70.97;99237.66;5077494;28;45165;-60
2021/11/02 02:29:33;;;;;;;;;3.75;2.50;;;;;10.43;70.93;99240.09;5075945;27;45264;-61
2021/11/02 02:31:58;;;;;;;;;3.75;2.00;;;;;10.45;71.03;99246.84;5059137;28;45451;-60
2021/11/02 02:34:24;;;;;;;;;19.25;17.75;;;;;10.47;70.81;99233.53;5075485;28;59243;-60
2021/11/02 02:36:51;;;;;;;;;7.00;7.00;;;;;10.47;70.57;99237.00;5075396;27;62151;-60
2021/11/02 02:39:16;;;;;;;;;3.00;3.00;;;;;10.49;71.11;99237.66;5075966;28;47101;-61
2021/11/02 02:41:41;;;;;;;;;4.25;3.25;;;;;10.50;70.69;99236.66;5058760;28;50783;-61
2021/11/02 02:44:10;;;;;;;;;4.75;4.75;;;;;10.48;70.57;99228.13;5058350;28;61832;-61
2021/11/02 02:46:37;;;;;;;;;5.00;3.25;;;;;10.48;70.90;99238.63;5059201;28;45551;-60
2021/11/02 02:49:03;;;;;;;;;3.75;3.00;;;;;10.51;71.19;99233.03;5075749;27;46089;-60
2021/11/02 02:51:28;;;;;;;;;4.00;2.75;;;;;10.52;70.91;99241.72;5074795;28;63750;-59
2021/11/02 02:53:54;;;;;;;;;4.00;3.00;;;;;10.53;70.74;99235.50;5058444;28;55253;-60
2021/11/02 02:56:19;;;;;;;;;5.25;3.75;;;;;10.55;71.03;99225.63;5075884;28;45432;-59
2021/11/02 02:58:46;;;;;;;;;4.75;4.00;;;;;10.58;71.19;99232.38;5058689;28;45459;-61
2021/11/02 03:01:12;;;;;;;;;4.00;4.00;;;;;10.58;70.56;99230.56;5076866;28;45911;-60
2021/11/02 03:03:39;;;;;;;;;3.00;3.00;;;;;10.59;70.87;99218.25;5058854;28;45353;-60
2021/11/02 03:06:06;;;;;;;;;5.50;4.00;;;;;10.60;70.60;99219.91;5075695;28;45779;-60
2021/11/02 03:08:33;;;;;;;;;3.25;3.00;;;;;10.61;70.98;99221.50;5075265;27;46402;-60
2021/11/02 03:10:59;;;;;;;;;3.00;3.00;;;;;10.62;70.88;99217.88;5075324;28;48726;-61
2021/11/02 03:13:24;;;;;;;;;4.75;3.00;;;;;10.63;70.52;99216.91;5058588;28;45474;-60
2021/11/02 03:51:01;;;;;;;;;3.00;2.50;;;;;10.57;70.81;99210.53;5074870;27;45886;-60
2021/11/02 03:59:58;;;;;;;;;4.00;4.00;;;;;10.60;70.72;99209.38;5075164;28;45270;-61
2021/11/02 04:26:51;;;;;;;;;8.00;3.00;;;;;10.59;70.76;99224.31;5078270;28;45323;-60
2021/11/02 04:32:59;;;;;;;;;13.50;11.00;;;;;10.63;70.91;99233.50;5062917;28;45364;-60
2021/11/02 05:50:37;;;;;;;;;5.75;5.00;;;;;10.61;71.60;99232.00;5078034;28;45441;-60
2021/11/02 06:00:34;;;;;;;;;2.50;2.50;;;;;10.62;71.59;99237.09;5077698;28;45898;-61
2021/11/02 06:03:29;;;;;;;;;3.50;3.00;;;;;10.63;71.26;99240.53;5077616;27;45806;-61
2021/11/02 06:09:15;;;;;;;;;5.00;4.00;;;;;10.64;71.13;99234.31;5043496;28;45342;-61
2021/11/02 06:28:20;;;;;;;;;5.75;5.00;;;;;10.72;70.91;99249.25;5076556;28;45363;-60
2021/11/02 06:30:55;;;;;;;;;6.00;3.75;;;;;10.73;70.63;99256.13;5059317;28;45521;-60
2021/11/02 06:35:55;;;;;;;;;4.00;3.00;;;;;10.74;70.67;99266.47;5075869;27;45342;-60
2021/11/02 06:54:36;;;;;;;;;2.75;2.00;;;;;10.78;70.91;99259.88;5058547;28;46083;-61
2021/11/02 06:57:37;;;;;;;;;9.50;5.75;;;;;10.78;70.25;99261.72;5075879;28;45298;-60
2021/11/02 07:19:37;;;;;;;;;4.00;1.50;;;;;10.75;69.34;99275.19;5076427;28;45335;-60
2021/11/02 07:24:49;;;;;;;;;2.25;2.00;;;;;10.78;69.29;99291.41;5058153;28;45494;-60
2021/11/02 08:47:47;;;;;;;;;2.50;2.25;;;;;11.53;66.16;99367.41;5078933;28;45354;-61
2021/11/02 08:50:12;;;;;;;;;1.00;1.00;;;;;11.59;65.63;99366.72;5078337;27;45346;-61
2021/11/02 08:52:38;;;;;;;;;11.50;9.00;;;;;11.64;65.21;99364.41;5078790;27;45253;-60
2021/11/02 08:55:05;;;;;;;;;2.00;2.00;;;;;11.72;65.30;99366.97;5077608;28;46311;-61
2021/11/02 08:57:31;;;;;;;;;2.75;1.00;;;;;11.87;64.48;99369.72;5077415;28;45371;-60
2021/11/02 08:59:56;;;;;;;;;1.00;1.00;;;;;12.06;64.71;99365.00;5077066;28;45434;-60
2021/11/02 09:02:34;;;;;;;;;1.00;1.00;;;;;12.25;63.87;99376.06;5072999;27;45493;-61
2021/11/02 09:05:06;;;;;;;;;2.25;1.00;;;;;12.42;63.84;99372.34;5076965;28;45591;-61
2021/11/02 09:07:32;;;;;;;;;2.00;2.00;;;;;12.57;63.44;99377.66;5076411;27;45429;-60
2021/11/02 09:10:01;;;;;;;;;1.00;1.00;;;;;12.69;62.84;99374.59;5077540;28;45383;-60
2021/11/02 09:12:33;;;;;;;;;2.00;1.00;;;;;12.78;62.17;99370.84;5077571;27;45514;-61
2021/11/02 09:15:02;;;;;;;;;1.50;1.50;;;;;12.80;61.98;99374.13;5076882;27;46409;-60
2021/11/02 09:17:31;;;;;;;;;2.00;2.00;;;;;12.87;61.82;99364.50;5073982;27;45410;-61
2021/11/02 09:19:58;;;;;;;;;2.50;1.75;;;;;12.96;61.31;99369.69;5076832;27;45551;-60
2021/11/02 09:22:23;;;;;;;;;3.00;1.00;;;;;13.06;61.27;99383.44;5075238;28;45562;-60
2021/11/02 09:24:50;;;;;;;;;3.25;1.00;;;;;13.13;60.63;99373.00;5057250;28;67836;-61
2021/11/02 09:27:15;;;;;;;;;1.50;1.00;;;;;13.24;60.63;99379.66;5076913;28;45847;-61
2021/11/02 09:29:41;;;;;;;;;5.50;4.00;;;;;13.36;60.52;99378.16;5074962;27;67571;-61
2021/11/02 09:32:08;;;;;;;;;2.00;2.00;;;;;13.49;60.48;99381.00;5057031;28;64118;-61
2021/11/02 09:34:33;;;;;;;;;1.00;1.00;;;;;13.60;59.67;99373.63;5074148;27;45632;-61
2021/11/02 09:37:31;;;;;;;;;1.75;1.25;;;;;13.68;59.16;99377.97;5076361;27;45284;-61
2021/11/02 09:39:56;;;;;;;;;2.00;2.00;;;;;13.73;59.33;99378.25;5043290;27;45436;-61
2021/11/02 09:42:37;;;;;;;;;1.00;1.00;;;;;13.77;59.75;99377.72;5057198;28;45443;-61
2021/11/02 09:45:21;;;;;;;;;3.00;2.00;;;;;13.79;59.47;99380.16;5070445;28;46352;-61
2021/11/02 09:48:08;;;;;;;;;1.00;1.00;;;;;13.79;58.80;99382.78;5074150;28;45868;-61
2021/11/02 09:51:00;;;;;;;;;1.75;1.00;;;;;13.77;58.54;99380.34;5076427;28;45359;-61
2021/11/02 09:53:28;;;;;;;;;1.75;1.00;;;;;13.76;57.78;99377.88;5072029;27;46588;-61
2021/11/02 09:55:58;;;;;;;;;1.00;1.00;;;;;13.75;57.96;99382.34;5075684;28;45394;-61
2021/11/02 09:58:29;;;;;;;;;2.00;2.00;;;;;13.71;57.53;99378.44;5073396;27;46244;-61
2021/11/02 10:00:56;;;;;;;;;2.00;2.00;;;;;13.68;57.52;99376.19;5075660;28;45236;-61
2021/11/02 10:03:43;;;;;;;;;1.75;1.00;;;;;13.65;57.65;99381.81;5076355;27;45347;-60
2021/11/02 10:06:15;;;;;;;;;1.00;1.00;;;;;13.68;58.39;99383.25;5072239;28;46512;-61
2021/11/02 10:08:47;;;;;;;;;2.00;2.00;;;;;13.76;58.02;99386.63;5074760;28;45351;-60
2021/11/02 10:11:23;;;;;;;;;13.50;12.50;;;;;13.94;57.68;99388.03;5074767;27;45431;-61
2021/11/02 10:14:10;;;;;;;;;5.00;5.00;;;;;14.20;57.59;99384.03;5073653;28;46253;-61
2021/11/02 10:17:08;;;;;;;;;2.00;2.00;;;;;14.53;57.04;99383.50;5073552;27;45539;-61
2021/11/02 10:20:04;;;;;;;;;4.00;2.00;;;;;14.94;56.23;99395.25;5074779;28;45414;-61
2021/11/02 10:22:42;;;;;;;;;2.00;1.50;;;;;15.25;54.96;99386.91;5074975;27;45515;-61
2021/11/02 10:25:16;;;;;;;;;3.50;2.00;;;;;15.50;54.21;99393.53;5072996;28;45474;-61
2021/11/02 10:28:21;;;;;;;;;2.75;2.75;;;;;15.66;54.26;99395.03;5073794;28;46087;-61
2021/11/02 10:31:14;;;;;;;;;2.50;2.00;;;;;15.72;53.33;99404.84;5073604;28;45245;-61
2021/11/02 10:33:58;;;;;;;;;3.75;2.00;;;;;15.67;53.24;99405.41;5072792;27;45455;-60
2021/11/02 10:36:34;;;;;;;;;1.00;1.00;;;;;15.68;53.06;99408.91;5056398;28;45415;-61
2021/11/02 10:39:04;;;;;;;;;3.50;3.50;;;;;15.74;53.02;99405.47;5074346;28;45594;-61
2021/11/02 10:41:38;;;;;;;;;4.25;4.25;;;;;15.87;52.58;99400.25;5073022;27;45365;-61
2021/11/02 10:44:32;;;;;;;;;10.25;9.50;;;;;16.05;52.08;99403.34;5074719;27;45263;-61
2021/11/02 10:46:58;;;;;;;;;7.25;5.75;;;;;16.08;51.97;99409.06;5072512;28;45669;-61
2021/11/02 10:49:42;;;;;;;;;9.25;7.00;;;;;16.08;51.43;99418.84;5073619;28;45456;-61
2021/11/02 10:52:08;;;;;;;;;6.50;3.75;;;;;16.01;51.11;99410.88;5073102;27;45948;-61
2021/11/02 10:54:36;;;;;;;;;5.50;3.50;;;;;15.93;50.52;99418.97;5073893;27;45448;-62
2021/11/02 10:57:33;;;;;;;;;2.00;2.00;;;;;15.74;51.07;99416.06;5071740;28;45467;-62
2021/11/02 11:00:01;;;;;;;;;3.50;2.75;;;;;15.60;51.11;99411.72;5073398;27;46331;-60
2021/11/02 11:02:29;;;;;;;;;6.50;2.00;;;;;15.48;51.52;99414.09;5072744;27;45714;-60
2021/11/02 11:04:55;;;;;;;;;2.00;2.00;;;;;15.35;51.68;99406.91;5073520;28;45469;-61
2021/11/02 11:07:21;;;;;;;;;1.00;1.00;;;;;15.28;51.44;99406.84;5073189;27;45634;-61
2021/11/02 11:09:46;;;;;;;;;2.75;0.75;;;;;15.28;52.04;99404.22;5055987;28;46404;-61
2021/11/02 11:12:13;;;;;;;;;2.00;2.00;;;;;15.37;51.97;99402.22;5072249;28;55208;-61
2021/11/02 11:14:39;;;;;;;;;0.75;0.75;;;;;15.49;51.61;99405.94;5072674;28;45430;-61
2021/11/02 11:17:04;;;;;;;;;0.75;0.75;;;;;15.65;51.39;99401.34;5054485;28;60153;-61
2021/11/02 11:19:36;;;;;;;;;3.00;3.00;;;;;15.76;51.34;99406.09;5054564;28;59702;-61
2021/11/02 11:22:03;;;;;;;;;0.75;0.75;;;;;15.85;50.26;99404.06;5055428;28;45510;-62
2021/11/02 11:25:15;;;;;;;;;0.75;0.75;;;;;15.89;50.61;99402.69;5054636;28;45517;-61
2021/11/02 11:27:46;;;;;;;;;1.00;1.00;;;;;15.99;50.12;99404.94;5025768;28;45500;-62
2021/11/02 11:30:12;;;;;;;;;2.25;2.00;;;;;16.02;50.21;99412.50;5061910;27;46342;-61
2021/11/02 11:32:38;;;;;;;;;2.00;2.00;;;;;16.02;50.01;99404.56;5071352;28;45794;-61
2021/11/02 11:35:04;;;;;;;;;4.00;2.00;;;;;15.98;50.03;99408.59;5073024;28;45444;-61
2021/11/02 11:37:35;;;;;;;;;1.25;1.00;;;;;15.92;50.18;99396.16;5072400;27;45628;-61
2021/11/02 11:40:02;;;;;;;;;2.50;2.50;;;;;15.86;50.51;99397.75;5072681;28;45449;-60
2021/11/02 11:42:31;;;;;;;;;5.00;3.00;;;;;15.81;50.24;99389.59;5073801;28;45403;-61
2021/11/02 11:45:09;;;;;;;;;2.00;2.00;;;;;15.73;50.93;99380.78;5073879;28;45527;-60
2021/11/02 11:47:34;;;;;;;;;4.75;3.50;;;;;15.67;50.33;99386.06;5070942;27;45360;-61
2021/11/02 11:50:21;;;;;;;;;3.75;1.00;;;;;15.62;50.40;99383.19;5072054;27;45508;-61
2021/11/02 11:52:50;;;;;;;;;0.75;0.75;;;;;15.54;50.02;99381.56;5072840;27;45755;-60
2021/11/02 11:55:36;;;;;;;;;2.00;2.00;;;;;15.43;50.18;99380.25;5070752;28;45498;-61
2021/11/02 11:58:24;;;;;;;;;1.75;1.75;;;;;15.35;50.24;99370.66;5070454;27;45502;-61
2021/11/02 12:00:54;;;;;;;;;9.75;6.00;;;;;15.28;49.79;99378.59;5073310;28;45706;-61
2021/11/02 12:03:41;;;;;;;;;3.75;3.75;;;;;15.17;50.35;99384.41;5072594;27;45989;-61
2021/11/02 12:06:16;;;;;;;;;5.75;3.50;;;;;15.03;50.23;99387.97;5070826;27;45564;-61
2021/11/02 12:08:51;;;;;;;;;5.75;4.75;;;;;14.90;51.00;99378.94;5072941;28;45455;-61
2021/11/02 12:11:18;;;;;;;;;4.75;4.00;;;;;14.81;51.26;99374.84;5071574;28;45606;-60
2021/11/02 12:13:44;;;;;;;;;3.75;2.75;;;;;14.73;51.58;99373.13;5071176;28;45455;-62
2021/11/02 12:16:22;;;;;;;;;3.50;3.50;;;;;14.67;51.70;99368.56;5036465;28;45438;-61
2021/11/02 12:19:00;;;;;;;;;3.25;3.25;;;;;14.62;51.96;99371.81;5071074;27;45621;-61
2021/11/02 12:21:28;;;;;;;;;4.00;4.00;;;;;14.56;52.40;99364.63;5054684;28;46667;-60
2021/11/02 12:23:53;;;;;;;;;2.00;1.50;;;;;14.53;52.19;99359.72;5054955;27;45946;-62
2021/11/02 12:26:19;;;;;;;;;2.00;1.50;;;;;14.50;52.63;99357.47;5056356;28;45525;-61
2021/11/02 12:28:46;;;;;;;;;2.25;1.50;;;;;14.48;52.67;99354.19;5075745;28;45456;-61
2021/11/02 12:31:18;;;;;;;;;0.50;0.50;;;;;14.43;52.61;99356.59;5075170;27;46594;-61
2021/11/02 12:33:48;;;;;;;;;5.50;4.00;;;;;14.39;52.75;99353.53;5074174;28;45525;-61
2021/11/02 12:36:23;;;;;;;;;2.00;2.00;;;;;14.37;52.81;99358.19;5075863;28;45316;-60
2021/11/02 12:38:49;;;;;;;;;2.00;2.00;;;;;14.42;52.91;99360.25;5075777;28;45708;-61
2021/11/02 12:41:19;;;;;;;;;1.00;1.00;;;;;14.44;53.09;99361.69;5073950;27;45478;-61
2021/11/02 12:43:44;;;;;;;;;0.50;0.50;;;;;14.48;53.24;99355.03;5076161;27;45381;-61
2021/11/02 12:46:10;;;;;;;;;2.50;0.50;;;;;14.56;52.97;99356.69;5074719;28;45411;-60
2021/11/02 12:48:35;;;;;;;;;1.50;1.50;;;;;14.63;53.38;99362.88;5073714;28;45570;-60
2021/11/02 12:51:01;;;;;;;;;3.00;1.75;;;;;14.67;52.66;99355.34;5058073;28;50916;-61
2021/11/02 12:53:28;;;;;;;;;1.50;1.50;;;;;14.72;52.65;99354.81;5058556;28;45366;-61
2021/11/02 12:55:54;;;;;;;;;1.50;1.50;;;;;14.78;53.15;99348.78;5058227;28;45664;-61
2021/11/02 12:58:20;;;;;;;;;0.50;0.50;;;;;14.88;52.49;99351.06;5057515;28;45517;-61
2021/11/02 13:00:50;;;;;;;;;1.50;1.50;;;;;14.95;52.30;99349.28;5074280;28;46775;-61
2021/11/02 13:03:21;;;;;;;;;5.00;2.25;;;;;14.99;52.35;99343.41;5073439;28;45711;-61
2021/11/02 13:06:07;;;;;;;;;2.25;2.00;;;;;15.02;51.66;99339.56;5074738;28;45577;-61
2021/11/02 13:08:56;;;;;;;;;1.25;1.25;;;;;15.02;51.26;99344.03;5075684;27;45472;-61
2021/11/02 13:11:21;;;;;;;;;4.50;4.00;;;;;14.98;51.93;99335.66;5059053;27;46539;-61
2021/11/02 13:14:14;;;;;;;;;1.50;1.50;;;;;14.91;51.10;99337.47;5075741;27;45205;-61
2021/11/02 13:16:59;;;;;;;;;0.50;0.50;;;;;14.81;51.63;99337.81;5075521;28;45488;-61
2021/11/02 13:19:38;;;;;;;;;1.00;1.00;;;;;14.74;51.96;99332.47;5073453;28;45594;-61
2021/11/02 13:22:28;;;;;;;;;0.50;0.50;;;;;14.65;51.68;99329.13;5075533;28;46142;-61
2021/11/02 13:25:10;;;;;;;;;1.50;0.25;;;;;14.54;52.25;99330.47;5071397;27;45521;-61
2021/11/02 13:27:37;;;;;;;;;0.50;0.50;;;;;14.45;52.83;99333.44;5072886;28;45561;-61
2021/11/02 13:30:36;;;;;;;;;6.00;4.25;;;;;14.37;53.12;99329.91;5074058;27;45524;-61
2021/11/02 13:33:03;;;;;;;;;2.00;1.00;;;;;14.28;52.25;99328.44;5074594;28;46160;-60
2021/11/02 13:36:04;;;;;;;;;0.50;0.50;;;;;14.20;53.33;99331.22;5074969;27;45252;-61
2021/11/02 13:38:33;;;;;;;;;2.25;1.00;;;;;14.16;53.17;99329.94;5074780;28;45494;-61
2021/11/02 13:41:06;;;;;;;;;2.00;1.00;;;;;14.10;53.23;99329.69;5075726;28;45417;-61
2021/11/02 13:43:39;;;;;;;;;3.75;3.50;;;;;14.07;53.36;99326.59;5074090;27;46532;-61
2021/11/02 13:46:07;;;;;;;;;2.25;1.00;;;;;14.03;53.48;99326.16;5073241;27;46002;-61
2021/11/02 13:48:32;;;;;;;;;2.00;2.00;;;;;14.02;53.64;99321.88;5073141;27;45333;-62
2021/11/02 13:50:59;;;;;;;;;1.00;1.00;;;;;14.02;53.55;99319.25;5074256;28;45594;-60
2021/11/02 13:53:24;;;;;;;;;1.25;0.50;;;;;14.01;53.55;99307.06;5075244;28;46386;-61
2021/11/02 13:55:50;;;;;;;;;1.00;1.00;;;;;14.00;52.63;99310.69;5074915;28;45186;-61
2021/11/02 13:58:16;;;;;;;;;1.50;1.00;;;;;13.99;53.00;99309.06;5073059;28;45501;-61
2021/11/02 14:00:41;;;;;;;;;2.75;0.25;;;;;13.95;52.83;99307.81;5071116;27;45727;-61
2021/11/02 14:03:12;;;;;;;;;1.00;0.00;;;;;13.94;52.80;99311.44;5073796;28;46158;-62
2021/11/02 14:05:37;;;;;;;;;1.00;1.00;;;;;13.92;53.13;99309.00;5057740;28;45747;-61
2021/11/02 14:08:03;;;;;;;;;0.75;0.75;;;;;13.92;53.05;99318.75;5056152;28;45401;-61
2021/11/02 14:10:29;;;;;;;;;0.75;0.75;;;;;13.88;53.32;99304.28;5075109;28;45358;-60
2021/11/02 14:12:54;;;;;;;;;0.50;0.50;;;;;13.86;53.80;99306.28;5073920;28;46118;-62
2021/11/02 14:15:20;;;;;;;;;1.75;1.00;;;;;13.84;53.08;99309.13;5075024;28;45472;-61
2021/11/02 14:17:52;;;;;;;;;1.75;1.00;;;;;13.83;54.28;99314.56;5073058;28;45454;-61
2021/11/02 14:20:34;;;;;;;;;1.00;1.00;;;;;13.79;54.23;99314.16;5073643;27;45508;-61
2021/11/02 14:23:00;;;;;;;;;3.00;1.25;;;;;13.77;54.03;99305.59;5073887;28;45564;-61
2021/11/02 14:25:32;;;;;;;;;4.00;1.00;;;;;13.74;53.64;99301.53;5074258;28;45524;-60
2021/11/02 14:27:58;;;;;;;;;0.25;0.25;;;;;13.74;54.80;99300.69;5071346;28;45515;-61
2021/11/02 14:30:33;;;;;;;;;0.00;0.00;;;;;13.73;53.93;99294.59;5056130;28;45490;-61
2021/11/02 14:33:05;;;;;;;;;1.00;1.00;;;;;13.71;54.03;99293.13;5072572;28;46404;-62
2021/11/02 14:35:51;;;;;;;;;1.00;1.00;;;;;13.71;54.02;99299.25;5074122;27;45806;-60
2021/11/02 14:38:18;;;;;;;;;1.50;1.00;;;;;13.69;53.68;99303.91;5073128;27;45512;-61
2021/11/02 14:40:54;;;;;;;;;1.50;1.50;;;;;13.65;54.04;99302.63;5074965;27;45598;-61
2021/11/02 14:43:24;;;;;;;;;3.00;3.00;;;;;13.62;54.22;99311.72;5071229;27;46623;-61
2021/11/02 14:45:51;;;;;;;;;2.25;0.00;;;;;13.60;54.97;99316.38;5074014;27;45912;-60
2021/11/02 14:48:26;;;;;;;;;1.00;1.00;;;;;13.58;54.58;99313.09;5072328;28;45529;-60
2021/11/02 14:50:52;;;;;;;;;1.50;1.00;;;;;13.58;54.35;99317.56;5072662;28;45472;-61
2021/11/02 14:53:27;;;;;;;;;1.00;1.00;;;;;13.55;54.67;99317.94;5073324;27;46308;-61
2021/11/02 14:55:53;;;;;;;;;1.00;1.00;;;;;13.52;54.49;99318.31;5070309;28;45748;-60
2021/11/02 15:01:07;;;;;;;;;3.00;2.00;;;;;13.45;55.14;99316.41;5072703;28;45457;-62
2021/11/02 15:03:33;;;;;;;;;2.00;2.00;;;;;13.40;54.76;99324.03;5056111;28;46444;-61
2021/11/02 15:06:10;;;;;;;;;1.75;1.75;;;;;13.36;55.83;99312.22;5073357;27;45381;-61
2021/11/02 15:08:36;;;;;;;;;2.50;2.50;;;;;13.32;55.49;99318.84;5055883;28;45664;-61
2021/11/02 15:11:13;;;;;;;;;4.00;2.00;;;;;13.29;56.14;99316.59;5072993;28;45596;-61
2021/11/02 15:13:39;;;;;;;;;1.75;1.75;;;;;13.28;56.38;99313.13;5072932;28;45548;-61
2021/11/02 15:16:04;;;;;;;;;2.25;2.00;;;;;13.28;56.25;99312.31;5070818;28;45438;-62
2021/11/02 15:18:41;;;;;;;;;4.00;3.00;;;;;13.25;56.44;99308.22;5073390;28;45495;-60
2021/11/02 15:21:07;;;;;;;;;2.75;2.75;;;;;13.23;56.41;99310.22;5071325;28;45502;-60
2021/11/02 15:23:44;;;;;;;;;1.25;1.00;;;;;13.19;56.90;99304.53;5071535;28;45486;-60
2021/11/02 15:26:11;;;;;;;;;4.25;2.00;;;;;13.16;56.34;99304.06;5069763;27;45511;-61
2021/11/02 15:28:41;;;;;;;;;2.00;2.00;;;;;13.12;57.26;99300.16;5073487;27;45623;-61
2021/11/02 15:31:06;;;;;;;;;2.25;2.25;;;;;13.11;57.18;99295.88;5073562;27;45446;-61
2021/11/02 15:33:34;;;;;;;;;3.00;2.00;;;;;13.07;57.29;99290.16;5073117;28;45870;-61
2021/11/02 15:36:19;;;;;;;;;3.00;1.00;;;;;13.04;57.73;99298.44;5073368;28;45415;-62
2021/11/02 15:39:02;;;;;;;;;4.50;2.00;;;;;13.02;57.28;99303.06;5071559;27;45357;-61
2021/11/02 15:41:28;;;;;;;;;3.00;3.00;;;;;12.99;57.16;99298.16;5073931;27;45302;-61
2021/11/02 15:43:55;;;;;;;;;2.00;2.00;;;;;12.98;57.25;99291.25;5073675;28;46416;-61
2021/11/02 15:46:35;;;;;;;;;2.00;2.00;;;;;12.95;57.37;99296.88;5065180;28;45516;-62
2021/11/02 15:49:03;;;;;;;;;4.75;3.00;;;;;12.95;57.99;99291.59;5073335;28;45407;-60
2021/11/02 15:51:34;;;;;;;;;3.00;3.00;;;;;12.90;57.64;99289.53;5071555;28;45245;-60
2021/11/02 15:54:08;;;;;;;;;5.50;2.00;;;;;12.90;58.02;99292.16;5070533;28;45479;-61
2021/11/02 15:56:33;;;;;;;;;3.00;3.00;;;;;12.88;58.57;99288.91;5070734;28;45942;-60
2021/11/02 15:59:03;;;;;;;;;3.00;3.00;;;;;12.81;59.13;99288.78;5073008;28;65349;-61
2021/11/02 16:01:36;;;;;;;;;2.50;2.50;;;;;12.76;58.85;99283.22;5076206;27;45480;-61
2021/11/02 16:04:07;;;;;;;;;4.50;3.00;;;;;12.70;59.10;99290.06;5075949;27;46169;-61
2021/11/02 16:06:32;;;;;;;;;4.00;3.25;;;;;12.63;59.28;99289.13;5075806;28;45563;-61
2021/11/02 16:08:59;;;;;;;;;4.00;4.00;;;;;12.56;59.63;99289.06;5076089;28;65551;-60
2021/11/02 16:11:25;;;;;;;;;5.00;4.00;;;;;12.50;60.04;99295.03;5076823;28;45411;-60
2021/11/02 16:13:50;;;;;;;;;5.25;4.00;;;;;12.43;60.13;99299.38;5075662;28;72596;-60
2021/11/02 16:16:15;;;;;;;;;4.00;2.00;;;;;12.37;60.71;99303.56;5072903;27;72790;-62
2021/11/02 16:18:41;;;;;;;;;4.75;4.00;;;;;12.30;60.78;99292.09;5058270;28;45452;-61
2021/11/02 16:21:08;;;;;;;;;6.00;5.50;;;;;12.23;60.99;99297.22;5057744;28;56943;-61
2021/11/02 16:23:49;;;;;;;;;6.50;5.00;;;;;12.16;61.41;99285.81;5075090;27;45548;-62
2021/11/02 16:26:19;;;;;;;;;4.50;4.50;;;;;12.09;61.18;99290.94;5072362;28;68995;-61
2021/11/02 16:28:44;;;;;;;;;7.50;4.50;;;;;12.04;61.45;99289.84;5074652;28;45537;-61
2021/11/02 16:31:18;;;;;;;;;7.50;5.00;;;;;11.99;61.75;99282.41;5076218;27;45720;-61
2021/11/02 16:33:45;;;;;;;;;5.75;3.00;;;;;11.94;61.82;99285.59;5057298;28;46314;-62
2021/11/02 16:36:24;;;;;;;;;4.75;4.75;;;;;11.88;62.49;99279.22;5073924;28;46288;-61
2021/11/02 16:38:56;;;;;;;;;6.00;6.00;;;;;11.84;62.25;99279.75;5071864;27;45474;-60
2021/11/02 16:41:25;;;;;;;;;6.25;5.25;;;;;11.80;62.62;99281.06;5074414;27;45502;-61
2021/11/02 16:43:52;;;;;;;;;5.50;5.25;;;;;11.77;62.57;99278.78;5075745;28;47018;-61
2021/11/02 16:46:41;;;;;;;;;5.75;5.00;;;;;11.73;63.01;99279.16;5075882;27;46032;-60
2021/11/02 16:49:24;;;;;;;;;8.50;5.50;;;;;11.67;63.01;99269.31;5076102;27;45448;-61